Time;durP1;ratioP1;P1;durP2;ratioP2;P2;SDS_P1;SDS_P2;PMS_P1;PMS_P2;Temp;Humidity;BMP_temperature;BMP_pressure;BME280_temperature;BME280_humidity;BME280_pressure;Samples;Min_cycle;Max_cycle;Signal;HPM_P1;HPM_P2
2021/12/23 00:01:43;;;;;;;;;;;;;;;17.39;60.39;102200.00;4991624;28;1437;-40
2021/12/23 00:04:12;;;;;;;;;;;;;;;17.44;60.07;102195.22;5000571;28;1190;-40
2021/12/23 00:06:39;;;;;;;;;;;;;;;17.36;60.19;102200.19;4992511;28;1986;-40
2021/12/23 00:09:08;;;;;;;;;;;;;;;17.34;60.18;102196.72;5002785;28;1612;-40
2021/12/23 00:11:35;;;;;;;;;;;;;;;17.34;60.39;102194.06;4994933;28;1655;-40
2021/12/23 00:14:04;;;;;;;;;;;;;;;17.26;60.52;102181.13;4991672;28;1612;-40
2021/12/23 00:16:43;;;;;;;;;;;;;;;17.24;60.32;102190.19;5001077;28;1910;-40
2021/12/23 00:19:20;;;;;;;;;;;;;;;17.18;60.09;102187.88;4996461;28;1575;-40
2021/12/23 00:24:36;;;;;;;;;;;;;;;17.07;60.78;102192.03;5005415;28;1815;-40
2021/12/23 00:27:06;;;;;;;;;;;;;;;17.03;60.31;102190.50;4996650;28;1732;-41
2021/12/23 00:29:33;;;;;;;;;;;;;;;17.05;59.89;102188.59;5001040;28;1420;-40
2021/12/23 00:32:08;;;;;;;;;;;;;;;16.99;60.20;102196.97;5000901;28;1394;-40
2021/12/23 00:34:35;;;;;;;;;;;;;;;16.98;60.58;102186.38;5005090;28;1082;-40
2021/12/23 00:37:04;;;;;;;;;;;;;;;16.96;60.30;102197.13;5007654;28;1910;-40
2021/12/23 00:39:31;;;;;;;;;;;;;;;16.93;60.84;102200.00;5003263;28;1419;-40
2021/12/23 00:42:06;;;;;;;;;;;;;;;16.90;60.82;102189.47;5001067;28;1628;-40
2021/12/23 00:44:33;;;;;;;;;;;;;;;16.86;60.76;102187.91;4991857;28;1471;-40
2021/12/23 00:47:00;;;;;;;;;;;;;;;16.82;60.79;102183.69;5000989;28;1673;-40
2021/12/23 00:49:26;;;;;;;;;;;;;;;16.81;60.56;102187.28;4991360;28;1733;-40
2021/12/23 00:51:54;;;;;;;;;;;;;;;16.81;60.83;102200.63;4995611;28;1825;-40
2021/12/23 00:54:24;;;;;;;;;;;;;;;16.77;60.58;102191.06;5006934;28;1829;-40
2021/12/23 00:56:51;;;;;;;;;;;;;;;16.79;60.64;102194.50;4987629;28;1963;-40
2021/12/23 00:59:21;;;;;;;;;;;;;;;16.74;60.45;102183.25;4996279;28;1791;-40
2021/12/23 01:01:48;;;;;;;;;;;;;;;16.67;60.15;102190.72;5002498;28;1745;-41
2021/12/23 01:04:15;;;;;;;;;;;;;;;16.69;60.78;102200.38;5003074;28;1535;-40
2021/12/23 01:06:51;;;;;;;;;;;;;;;16.64;60.09;102178.41;5007880;28;1925;-40
2021/12/23 01:09:17;;;;;;;;;;;;;;;16.64;60.53;102170.38;4995595;28;1614;-40
2021/12/23 01:11:47;;;;;;;;;;;;;;;16.64;60.26;102174.88;4997770;28;2123;-41
2021/12/23 01:14:26;;;;;;;;;;;;;;;16.59;61.04;102179.59;5001557;28;1996;-41
2021/12/23 01:19:41;;;;;;;;;;;;;;;16.56;60.41;102164.63;5001295;28;1547;-41
2021/12/23 01:22:08;;;;;;;;;;;;;;;16.57;61.11;102179.69;4997507;28;1774;-40
2021/12/23 01:24:35;;;;;;;;;;;;;;;16.52;60.44;102165.75;5000180;28;1392;-40
2021/12/23 01:27:01;;;;;;;;;;;;;;;16.48;60.01;102173.03;4998232;28;1737;-41
2021/12/23 01:29:28;;;;;;;;;;;;;;;16.46;60.43;102168.75;4996333;28;1751;-40
2021/12/23 01:31:57;;;;;;;;;;;;;;;16.44;60.72;102159.97;4995792;28;1509;-40
2021/12/23 01:34:23;;;;;;;;;;;;;;;16.45;60.71;102169.69;5001017;28;1478;-40
2021/12/23 01:36:56;;;;;;;;;;;;;;;16.43;59.74;102164.44;4998826;28;1906;-40
2021/12/23 01:39:23;;;;;;;;;;;;;;;16.38;59.98;102160.31;5002452;28;1879;-40
2021/12/23 01:41:49;;;;;;;;;;;;;;;16.37;60.66;102158.56;4998915;28;1453;-40
2021/12/23 01:44:16;;;;;;;;;;;;;;;16.39;60.40;102162.88;5002675;28;1757;-40
2021/12/23 01:46:43;;;;;;;;;;;;;;;16.34;61.15;102156.09;5000268;28;1880;-40
2021/12/23 01:49:13;;;;;;;;;;;;;;;16.33;60.62;102159.69;5001576;28;1691;-40
2021/12/23 01:51:40;;;;;;;;;;;;;;;16.33;60.09;102165.03;4982995;28;1574;-40
2021/12/23 01:54:07;;;;;;;;;;;;;;;16.32;59.93;102168.66;5000231;28;1424;-40
2021/12/23 01:56:35;;;;;;;;;;;;;;;16.32;60.59;102163.31;5003819;28;1687;-40
2021/12/23 01:59:04;;;;;;;;;;;;;;;16.27;60.82;102171.53;4994259;28;1906;-41
2021/12/23 02:01:31;;;;;;;;;;;;;;;16.23;60.74;102173.50;5002068;28;1607;-41
2021/12/23 02:03:57;;;;;;;;;;;;;;;16.29;60.36;102167.00;5001497;28;1598;-40
2021/12/23 02:06:27;;;;;;;;;;;;;;;16.30;59.72;102174.91;4995552;28;1062;-40
2021/12/23 02:08:58;;;;;;;;;;;;;;;16.27;61.11;102160.88;5003107;28;1675;-41
2021/12/23 02:11:35;;;;;;;;;;;;;;;16.25;60.22;102171.66;5001552;28;1385;-41
2021/12/23 02:14:02;;;;;;;;;;;;;;;16.24;59.84;102163.72;4991374;28;1412;-41
2021/12/23 02:16:42;;;;;;;;;;;;;;;16.21;60.91;102164.72;5002756;28;1777;-41
2021/12/23 02:19:18;;;;;;;;;;;;;;;16.21;60.29;102177.22;5001964;28;1973;-40
2021/12/23 02:21:52;;;;;;;;;;;;;;;16.18;60.65;102175.59;4996923;28;1572;-40
2021/12/23 02:24:18;;;;;;;;;;;;;;;16.19;59.96;102182.63;4983305;28;1682;-40
2021/12/23 02:26:45;;;;;;;;;;;;;;;16.19;61.25;102182.63;5002844;28;1462;-41
2021/12/23 02:29:11;;;;;;;;;;;;;;;16.21;63.32;102175.41;4997722;28;1754;-40
2021/12/23 02:31:39;;;;;;;;;;;;;;;16.22;62.26;102184.31;4989131;28;1635;-41
2021/12/23 02:34:06;;;;;;;;;;;;;;;16.20;62.50;102172.84;4988418;28;1724;-40
2021/12/23 02:36:33;;;;;;;;;;;;;;;16.23;62.17;102173.50;4997136;28;1527;-40
2021/12/23 02:39:03;;;;;;;;;;;;;;;16.22;62.24;102169.13;5000356;28;1972;-40
2021/12/23 02:41:30;;;;;;;;;;;;;;;16.22;62.50;102171.81;5001724;28;1818;-41
2021/12/23 02:43:59;;;;;;;;;;;;;;;16.20;62.20;102170.19;4986014;28;1764;-40
2021/12/23 02:46:28;;;;;;;;;;;;;;;16.16;63.40;102165.94;4996597;28;1790;-40
2021/12/23 02:48:55;;;;;;;;;;;;;;;16.15;62.34;102159.72;5002653;28;1505;-40
2021/12/23 02:51:24;;;;;;;;;;;;;;;16.16;62.01;102181.97;5007026;28;1821;-40
2021/12/23 02:53:51;;;;;;;;;;;;;;;16.11;63.28;102174.19;4999155;28;1664;-40
2021/12/23 02:56:19;;;;;;;;;;;;;;;16.09;63.36;102168.94;5004623;28;1416;-41
2021/12/23 02:58:48;;;;;;;;;;;;;;;16.13;61.49;102182.13;4985511;28;1906;-40
2021/12/23 03:11:00;;;;;;;;;;;;;;;18.00;58.44;102159.84;5035680;28;1996;-42
2021/12/23 03:13:28;;;;;;;;;;;;;;;18.58;56.67;102155.28;5052712;28;1823;-40
2021/12/23 03:15:55;;;;;;;;;;;;;;;18.63;56.73;102154.03;5050433;28;1655;-40
2021/12/23 03:18:22;;;;;;;;;;;;;;;18.77;56.18;102165.69;5046402;28;1902;-40
2021/12/23 03:20:48;;;;;;;;;;;;;;;18.81;56.84;102167.25;5051536;28;1454;-40
2021/12/23 03:23:14;;;;;;;;;;;;;;;18.88;56.54;102163.22;5050586;28;1766;-40
2021/12/23 03:25:41;;;;;;;;;;;;;;;18.83;55.93;102171.53;5052032;28;1545;-40
2021/12/23 03:28:07;;;;;;;;;;;;;;;18.74;56.29;102180.16;5051097;28;1489;-40
2021/12/23 03:30:35;;;;;;;;;;;;;;;18.66;57.34;102163.69;5052229;28;1973;-40
2021/12/23 03:33:02;;;;;;;;;;;;;;;18.56;57.31;102152.72;5045664;28;1428;-41
2021/12/23 03:35:28;;;;;;;;;;;;;;;18.53;56.89;102166.31;5046667;28;1364;-40
2021/12/23 03:37:55;;;;;;;;;;;;;;;18.57;57.10;102154.44;5047298;28;1985;-40
2021/12/23 03:40:21;;;;;;;;;;;;;;;18.58;57.43;102160.66;5047170;28;1414;-39
2021/12/23 03:42:48;;;;;;;;;;;;;;;18.62;57.39;102160.38;5046779;28;1266;-40
2021/12/23 03:45:15;;;;;;;;;;;;;;;18.67;57.06;102150.19;5059775;28;1488;-40
2021/12/23 03:47:45;;;;;;;;;;;;;;;18.74;56.75;102152.47;5058170;28;1579;-40
2021/12/23 03:50:11;;;;;;;;;;;;;;;18.63;56.51;102148.69;5061525;28;1788;-39
2021/12/23 03:52:38;;;;;;;;;;;;;;;18.54;57.09;102164.47;5063105;28;1670;-40
2021/12/23 03:55:05;;;;;;;;;;;;;;;18.59;57.04;102151.66;5063204;28;1762;-40
2021/12/23 03:57:31;;;;;;;;;;;;;;;18.59;57.24;102152.50;5049837;28;1913;-40
2021/12/23 03:59:57;;;;;;;;;;;;;;;18.87;55.97;102150.75;5064796;28;1841;-40
2021/12/23 04:02:24;;;;;;;;;;;;;;;18.93;56.24;102165.56;5057461;28;1548;-40
2021/12/23 04:04:52;;;;;;;;;;;;;;;18.86;55.94;102149.03;5055614;28;1540;-40
2021/12/23 04:07:18;;;;;;;;;;;;;;;18.91;55.93;102168.34;5062551;28;2026;-39
2021/12/23 04:09:45;;;;;;;;;;;;;;;18.80;56.96;102163.72;5061402;28;1626;-40
2021/12/23 04:12:12;;;;;;;;;;;;;;;18.86;56.12;102162.41;5064755;28;1533;-40
2021/12/23 04:14:38;;;;;;;;;;;;;;;18.82;56.13;102180.53;5068688;28;1777;-40
2021/12/23 04:17:05;;;;;;;;;;;;;;;18.83;56.56;102171.53;5060679;28;1629;-40
2021/12/23 04:19:32;;;;;;;;;;;;;;;18.79;56.94;102172.69;5061994;28;1914;-40
2021/12/23 04:22:01;;;;;;;;;;;;;;;18.94;56.76;102180.69;5067132;28;1769;-39
2021/12/23 04:24:27;;;;;;;;;;;;;;;18.80;56.84;102186.94;5059903;28;1817;-40
2021/12/23 04:26:54;;;;;;;;;;;;;;;18.94;56.64;102178.88;5053702;28;1728;-40
2021/12/23 04:29:20;;;;;;;;;;;;;;;18.94;55.94;102170.84;5059141;28;1645;-39
2021/12/23 04:31:47;;;;;;;;;;;;;;;18.82;56.81;102174.31;5059730;28;1809;-40
2021/12/23 04:34:13;;;;;;;;;;;;;;;18.87;56.42;102162.31;5066231;28;1642;-40
2021/12/23 04:36:39;;;;;;;;;;;;;;;19.02;55.57;102171.19;5060259;28;1959;-40
2021/12/23 04:39:07;;;;;;;;;;;;;;;18.97;56.55;102178.66;5052972;28;1915;-40
2021/12/23 04:41:34;;;;;;;;;;;;;;;19.12;56.06;102187.53;5053103;28;1622;-40
2021/12/23 04:44:00;;;;;;;;;;;;;;;18.93;56.10;102177.16;5066073;28;2195;-40
2021/12/23 04:46:27;;;;;;;;;;;;;;;19.00;55.91;102182.97;5056945;28;1652;-39
2021/12/23 04:48:53;;;;;;;;;;;;;;;19.05;56.01;102170.97;5069578;28;1406;-39
2021/12/23 04:51:21;;;;;;;;;;;;;;;19.03;55.74;102180.09;5053583;28;1676;-40
2021/12/23 04:53:48;;;;;;;;;;;;;;;18.97;56.28;102177.81;5054032;28;1633;-40
2021/12/23 04:56:16;;;;;;;;;;;;;;;19.08;55.77;102186.88;5058915;28;1527;-40
2021/12/23 04:58:44;;;;;;;;;;;;;;;18.99;55.87;102182.09;5061981;28;1985;-40
2021/12/23 05:01:17;;;;;;;;;;;;;;;19.00;55.51;102183.84;5059966;28;1470;-40
2021/12/23 05:03:43;;;;;;;;;;;;;;;18.96;56.23;102170.72;5066826;28;1689;-40
2021/12/23 05:06:10;;;;;;;;;;;;;;;19.04;55.39;102190.72;5057203;28;1860;-40
2021/12/23 05:08:36;;;;;;;;;;;;;;;19.00;56.26;102183.84;5053929;28;1692;-39
2021/12/23 05:11:03;;;;;;;;;;;;;;;18.96;56.59;102176.97;5056384;28;1680;-41
2021/12/23 05:13:30;;;;;;;;;;;;;;;19.10;55.48;102191.25;5067373;28;999;-40
2021/12/23 05:15:57;;;;;;;;;;;;;;;19.08;56.44;102191.38;5055733;28;1798;-40
2021/12/23 05:18:23;;;;;;;;;;;;;;;18.99;55.72;102174.06;5061277;28;1942;-39
2021/12/23 05:20:51;;;;;;;;;;;;;;;19.08;55.75;102169.94;5066972;28;1804;-40
2021/12/23 05:23:17;;;;;;;;;;;;;;;19.25;55.60;102182.19;5063572;28;1521;-40
2021/12/23 05:25:44;;;;;;;;;;;;;;;19.08;55.85;102180.66;5066511;28;1823;-40
2021/12/23 05:28:10;;;;;;;;;;;;;;;19.20;56.33;102187.00;5060382;28;1532;-39
2021/12/23 05:30:38;;;;;;;;;;;;;;;19.13;56.09;102196.44;5055294;28;1706;-40
2021/12/23 05:33:05;;;;;;;;;;;;;;;19.02;56.85;102176.56;5059831;28;1603;-41
2021/12/23 05:35:31;;;;;;;;;;;;;;;19.12;55.85;102175.94;5064523;28;1081;-40
2021/12/23 05:37:57;;;;;;;;;;;;;;;18.92;56.22;102191.53;5051544;28;1605;-41
2021/12/23 05:40:25;;;;;;;;;;;;;;;18.85;57.02;102174.13;5054281;28;1959;-39
2021/12/23 05:42:52;;;;;;;;;;;;;;;19.02;56.84;102168.50;5061642;28;1832;-39
2021/12/23 05:45:19;;;;;;;;;;;;;;;18.93;56.72;102174.47;5057926;28;1812;-39
2021/12/23 05:47:47;;;;;;;;;;;;;;;18.99;57.27;102178.56;5064363;28;1667;-39
2021/12/23 05:50:15;;;;;;;;;;;;;;;18.90;57.20;102171.13;5065633;28;1556;-39
2021/12/23 05:52:41;;;;;;;;;;;;;;;18.38;58.03;102165.47;5056890;28;1704;-39
2021/12/23 05:55:09;;;;;;;;;;;;;;;18.00;58.48;102179.41;5066151;28;1612;-39
2021/12/23 05:57:35;;;;;;;;;;;;;;;17.59;59.02;102181.94;5061498;28;1621;-39
2021/12/23 06:00:02;;;;;;;;;;;;;;;17.36;60.07;102181.47;5063933;28;1975;-39
2021/12/23 06:02:28;;;;;;;;;;;;;;;17.25;60.44;102194.63;5052912;28;2064;-38
2021/12/23 06:04:56;;;;;;;;;;;;;;;17.49;59.31;102186.97;5061929;28;1868;-39
2021/12/23 06:07:23;;;;;;;;;;;;;;;17.82;58.61;102188.56;5057004;28;1883;-39
2021/12/23 06:09:50;;;;;;;;;;;;;;;18.27;57.80;102174.19;5057079;28;1836;-39
2021/12/23 06:12:17;;;;;;;;;;;;;;;18.48;56.93;102184.47;5057902;28;1728;-39
2021/12/23 06:14:43;;;;;;;;;;;;;;;18.67;57.04;102182.34;5052865;28;1787;-39
2021/12/23 06:17:13;;;;;;;;;;;;;;;18.80;56.79;102186.94;5050366;28;1578;-39
2021/12/23 06:19:40;;;;;;;;;;;;;;;18.93;57.42;102193.22;5043094;28;1973;-39
2021/12/23 06:22:09;;;;;;;;;;;;;;;18.88;56.54;102203.41;5049612;28;1628;-39
2021/12/23 06:24:39;;;;;;;;;;;;;;;18.71;57.10;102193.75;5056035;28;1414;-40
2021/12/23 06:27:09;;;;;;;;;;;;;;;18.53;57.70;102206.50;5048608;28;1419;-40
2021/12/23 06:29:36;;;;;;;;;;;;;;;18.58;57.80;102185.66;5049962;28;1680;-39
2021/12/23 06:32:02;;;;;;;;;;;;;;;18.61;57.13;102192.63;5049007;28;1700;-39
2021/12/23 06:34:29;;;;;;;;;;;;;;;18.71;57.22;102201.78;5045755;28;1323;-39
2021/12/23 06:36:55;;;;;;;;;;;;;;;19.03;56.94;102215.78;5048684;28;1429;-39
2021/12/23 06:39:23;;;;;;;;;;;;;;;18.90;57.69;102209.53;5050407;28;1910;-39
2021/12/23 06:41:50;;;;;;;;;;;;;;;18.49;57.37;102199.63;5050059;28;1291;-40
2021/12/23 06:44:16;;;;;;;;;;;;;;;18.11;58.78;102210.06;5050883;28;1935;-41
2021/12/23 06:46:43;;;;;;;;;;;;;;;17.80;59.25;102209.19;5046221;28;1323;-40
2021/12/23 06:49:09;;;;;;;;;;;;;;;17.60;59.96;102215.72;5046064;28;1141;-41
2021/12/23 06:51:36;;;;;;;;;;;;;;;17.44;59.96;102235.34;5047238;28;1603;-40
2021/12/23 06:54:02;;;;;;;;;;;;;;;17.32;59.66;102212.00;5049490;28;1345;-40
2021/12/23 06:56:30;;;;;;;;;;;;;;;17.13;51.93;102211.34;5048056;28;1470;-40
2021/12/23 06:58:57;;;;;;;;;;;;;;;17.10;58.91;102215.91;5046191;28;1978;-39
2021/12/23 07:01:23;;;;;;;;;;;;;;;17.01;60.50;102221.78;5047763;28;1549;-40
2021/12/23 07:04:06;;;;;;;;;;;;;;;16.97;60.37;102225.59;5051154;28;1182;-39
2021/12/23 07:06:34;;;;;;;;;;;;;;;16.93;62.71;102213.34;5044566;28;1451;-39
2021/12/23 07:09:03;;;;;;;;;;;;;;;16.97;61.73;102216.69;5050240;28;1277;-40
2021/12/23 07:11:30;;;;;;;;;;;;;;;16.90;63.26;102206.34;5047233;28;1459;-42
2021/12/23 07:13:57;;;;;;;;;;;;;;;16.93;63.69;102221.38;5051003;28;1177;-40
2021/12/23 07:16:23;;;;;;;;;;;;;;;16.90;64.55;102203.69;5050000;28;1673;-40
2021/12/23 07:18:50;;;;;;;;;;;;;;;16.91;64.39;102209.91;5047016;28;1909;-40
2021/12/23 07:21:16;;;;;;;;;;;;;;;16.91;64.13;102207.25;5047474;28;1473;-40
2021/12/23 07:23:43;;;;;;;;;;;;;;;16.84;66.48;102216.53;5055323;28;1379;-40
2021/12/23 07:26:09;;;;;;;;;;;;;;;16.82;64.75;102218.44;5048793;28;1236;-39
2021/12/23 07:28:37;;;;;;;;;;;;;;;17.14;64.99;102210.41;5051887;28;1718;-39
2021/12/23 07:31:03;;;;;;;;;;;;;;;17.50;64.21;102210.91;5062808;28;1594;-39
2021/12/23 07:33:30;;;;;;;;;;;;;;;17.74;63.29;102212.25;5059819;28;1603;-39
2021/12/23 07:35:56;;;;;;;;;;;;;;;17.47;63.28;102213.78;5062741;28;1837;-40
2021/12/23 07:38:23;;;;;;;;;;;;;;;17.29;64.77;102217.53;5048943;28;1527;-41
2021/12/23 07:40:49;;;;;;;;;;;;;;;17.10;64.28;102221.25;5052477;28;1906;-40
2021/12/23 07:43:31;;;;;;;;;;;;;;;16.96;64.02;102226.53;5056451;28;1814;-40
2021/12/23 07:45:59;;;;;;;;;;;;;;;16.86;65.10;102219.97;5057737;28;2063;-40
2021/12/23 07:48:26;;;;;;;;;;;;;;;16.80;65.32;102229.16;5064803;28;1636;-39
2021/12/23 07:50:53;;;;;;;;;;;;;;;16.74;65.01;102220.63;5052504;28;1832;-40
2021/12/23 07:53:20;;;;;;;;;;;;;;;16.69;65.01;102212.84;5059037;28;1088;-40
2021/12/23 07:55:46;;;;;;;;;;;;;;;16.69;65.05;102223.53;5063371;28;1770;-39
2021/12/23 07:58:12;;;;;;;;;;;;;;;16.63;65.10;102223.88;5063995;28;1653;-39
2021/12/23 08:00:39;;;;;;;;;;;;;;;16.61;64.90;102229.34;5062399;28;1902;-39
2021/12/23 08:03:07;;;;;;;;;;;;;;;16.59;64.30;102223.22;5062114;28;1507;-39
2021/12/23 08:05:33;;;;;;;;;;;;;;;16.59;65.01;102231.22;5056527;28;1077;-39
2021/12/23 08:08:00;;;;;;;;;;;;;;;16.57;64.69;102224.22;5064163;28;1722;-39
2021/12/23 08:10:26;;;;;;;;;;;;;;;16.57;65.07;102235.75;5058334;28;1948;-39
2021/12/23 08:12:53;;;;;;;;;;;;;;;16.62;64.07;102222.19;5062808;28;1945;-39
2021/12/23 08:15:19;;;;;;;;;;;;;;;16.63;63.72;102224.78;5062911;28;1805;-39
2021/12/23 08:17:46;;;;;;;;;;;;;;;16.66;64.22;102223.72;5062587;28;1714;-39
2021/12/23 08:20:14;;;;;;;;;;;;;;;16.63;64.28;102222.09;5067518;28;1975;-39
2021/12/23 08:22:41;;;;;;;;;;;;;;;16.64;64.23;102214.94;5061958;28;1855;-39
2021/12/23 08:25:08;;;;;;;;;;;;;;;16.65;64.31;102217.53;5062537;28;1898;-40
2021/12/23 08:27:35;;;;;;;;;;;;;;;16.61;63.75;102199.97;5063675;28;1655;-39
2021/12/23 08:30:01;;;;;;;;;;;;;;;16.60;63.48;102202.69;5061543;28;1590;-39
2021/12/23 08:32:28;;;;;;;;;;;;;;;16.60;63.94;102202.69;5061670;28;1562;-40
2021/12/23 08:34:54;;;;;;;;;;;;;;;16.58;64.20;102210.78;5061349;28;1348;-39
2021/12/23 08:37:22;;;;;;;;;;;;;;;16.51;64.31;102204.06;5058414;28;1873;-40
2021/12/23 08:39:50;;;;;;;;;;;;;;;16.54;64.12;102217.25;5062335;28;1909;-39
2021/12/23 08:42:16;;;;;;;;;;;;;;;16.47;63.64;102202.50;5063607;28;1678;-39
2021/12/23 08:44:43;;;;;;;;;;;;;;;16.46;63.70;102201.66;5064959;28;1671;-39
2021/12/23 08:47:09;;;;;;;;;;;;;;;16.49;64.06;102212.19;5062957;28;1570;-39
2021/12/23 08:49:36;;;;;;;;;;;;;;;16.42;63.45;102201.91;5065067;28;1147;-39
2021/12/23 08:52:02;;;;;;;;;;;;;;;16.49;64.10;102200.59;5060442;28;1705;-39
2021/12/23 08:54:30;;;;;;;;;;;;;;;16.57;63.83;102203.72;5067736;28;1832;-40
2021/12/23 08:56:57;;;;;;;;;;;;;;;16.62;63.90;102201.66;5064728;28;1615;-40
2021/12/23 08:59:23;;;;;;;;;;;;;;;16.60;63.82;102187.53;5063957;28;1973;-40
2021/12/23 09:01:50;;;;;;;;;;;;;;;16.57;63.36;102179.69;5064494;28;1796;-39
2021/12/23 09:04:16;;;;;;;;;;;;;;;16.57;63.24;102176.16;5067055;28;1104;-39
2021/12/23 09:06:43;;;;;;;;;;;;;;;16.53;63.51;102169.25;5072488;28;1983;-40
2021/12/23 09:09:10;;;;;;;;;;;;;;;16.49;63.68;102168.56;5063484;28;1745;-39
2021/12/23 09:11:37;;;;;;;;;;;;;;;16.45;63.41;102159.88;5063335;28;1730;-39
2021/12/23 09:14:04;;;;;;;;;;;;;;;16.46;63.12;102166.09;5064753;28;1769;-39
2021/12/23 09:16:30;;;;;;;;;;;;;;;16.45;62.98;102151.00;5063899;28;1754;-40
2021/12/23 09:18:57;;;;;;;;;;;;;;;16.43;63.07;102152.88;5064796;28;2093;-39
2021/12/23 09:21:23;;;;;;;;;;;;;;;16.42;63.14;102151.19;5072062;28;1902;-39
2021/12/23 09:23:50;;;;;;;;;;;;;;;16.38;64.08;102150.47;5064482;28;1389;-40
2021/12/23 09:26:16;;;;;;;;;;;;;;;16.42;64.05;102157.38;5065737;28;1828;-40
2021/12/23 09:28:56;;;;;;;;;;;;;;;16.47;63.84;102149.97;5061603;28;1581;-41
2021/12/23 09:34:19;;;;;;;;;;;;;;;16.53;62.69;102142.56;4987699;28;1313;-39
2021/12/23 09:36:45;;;;;;;;;;;;;;;16.59;63.38;102143.09;5034475;28;2008;-39
2021/12/23 09:39:12;;;;;;;;;;;;;;;16.61;63.17;102138.53;5054659;28;1805;-39
2021/12/23 09:41:40;;;;;;;;;;;;;;;16.61;62.97;102145.66;5063345;28;1859;-39
2021/12/23 09:44:09;;;;;;;;;;;;;;;16.58;62.58;102130.69;5063916;28;1663;-39
2021/12/23 09:46:36;;;;;;;;;;;;;;;16.53;62.78;102130.06;5064361;28;1597;-40
2021/12/23 09:49:03;;;;;;;;;;;;;;;16.49;63.28;102123.16;5066540;28;1088;-39
2021/12/23 09:51:30;;;;;;;;;;;;;;;16.52;63.39;102120.34;5058509;28;1849;-39
2021/12/23 09:53:58;;;;;;;;;;;;;;;16.42;62.64;102093.28;5062999;28;1846;-39
2021/12/23 09:56:25;;;;;;;;;;;;;;;16.45;62.51;102100.25;5064162;28;1686;-39
2021/12/23 09:58:52;;;;;;;;;;;;;;;16.47;63.33;102123.28;5064102;28;1534;-39
2021/12/23 10:01:19;;;;;;;;;;;;;;;16.46;63.23;102120.69;5066268;28;1902;-39
2021/12/23 10:03:46;;;;;;;;;;;;;;;16.43;62.77;102088.81;5062550;28;1981;-39
2021/12/23 10:06:12;;;;;;;;;;;;;;;16.41;62.45;102093.38;5071835;28;1862;-39
2021/12/23 10:08:40;;;;;;;;;;;;;;;16.40;62.42;102083.66;5060205;28;1737;-40
2021/12/23 10:11:14;;;;;;;;;;;;;;;16.39;63.12;102081.91;5063006;28;1656;-40
2021/12/23 10:30:27;;;;;;;;;;;;;;;16.46;62.97;102068.13;5027886;28;1913;-39
2021/12/23 10:38:29;;;;;;;;;;;;;;;16.51;62.37;102038.50;5061333;28;1616;-40
2021/12/23 10:40:57;;;;;;;;;;;;;;;16.54;62.75;102046.34;5064381;28;1982;-39
2021/12/23 10:43:26;;;;;;;;;;;;;;;16.55;62.52;102040.03;5065410;28;1736;-39
2021/12/23 10:45:56;;;;;;;;;;;;;;;16.54;61.99;102032.16;5059987;28;1840;-39
2021/12/23 10:48:25;;;;;;;;;;;;;;;16.57;62.57;102031.94;5063006;28;1957;-39
2021/12/23 10:50:57;;;;;;;;;;;;;;;16.50;61.88;102031.44;5072372;28;1582;-40
2021/12/23 10:53:39;;;;;;;;;;;;;;;16.43;61.86;102024.72;5060602;28;1795;-40
2021/12/23 10:59:02;;;;;;;;;;;;;;;16.54;61.86;102024.13;5061652;28;1522;-40
2021/12/23 11:01:28;;;;;;;;;;;;;;;16.52;62.29;102023.34;5061101;28;1902;-39
2021/12/23 11:04:01;;;;;;;;;;;;;;;16.52;62.06;102013.53;5064903;28;1052;-39
2021/12/23 11:06:32;;;;;;;;;;;;;;;16.55;62.77;102008.00;5056459;28;1907;-39
2021/12/23 11:09:14;;;;;;;;;;;;;;;16.48;61.94;102014.66;5061566;28;1797;-39
2021/12/23 11:39:44;;;;;;;;;;;;;;;16.52;62.15;101984.16;5057026;28;1672;-39
2021/12/23 11:42:17;;;;;;;;;;;;;;;16.50;62.52;101970.03;5063213;28;1784;-39
2021/12/23 11:44:43;;;;;;;;;;;;;;;16.42;61.74;101958.94;5060054;28;1579;-39
2021/12/23 11:47:13;;;;;;;;;;;;;;;16.39;61.77;101959.13;5065196;28;1746;-39
2021/12/23 11:49:43;;;;;;;;;;;;;;;16.39;62.57;101967.97;5064619;28;954;-39
2021/12/23 11:52:11;;;;;;;;;;;;;;;16.37;62.23;101969.03;5066720;28;1722;-39
2021/12/23 11:54:39;;;;;;;;;;;;;;;16.28;62.05;101960.59;5063895;28;1742;-39
2021/12/23 11:57:08;;;;;;;;;;;;;;;16.30;62.90;101966.72;5062874;28;1824;-40
2021/12/23 11:59:36;;;;;;;;;;;;;;;16.25;62.11;101965.25;5051901;28;1645;-39
2021/12/23 12:02:11;;;;;;;;;;;;;;;16.20;62.22;101973.53;5063964;28;1902;-39
2021/12/23 12:04:38;;;;;;;;;;;;;;;16.17;62.37;101972.84;5064491;28;1090;-39
2021/12/23 12:07:14;;;;;;;;;;;;;;;16.14;62.24;101971.22;5066680;28;1706;-40
2021/12/23 12:09:54;;;;;;;;;;;;;;;16.13;62.35;101957.94;5062987;28;1609;-39
2021/12/23 12:12:20;;;;;;;;;;;;;;;16.10;63.07;101972.34;5062495;28;1724;-39
2021/12/23 12:14:48;;;;;;;;;;;;;;;16.08;63.09;101963.56;5062932;28;1684;-40
2021/12/23 12:17:35;;;;;;;;;;;;;;;16.06;62.86;101962.78;5059831;28;1596;-39
2021/12/23 12:20:02;;;;;;;;;;;;;;;16.06;62.80;101950.31;5061640;28;1909;-41
2021/12/23 12:22:49;;;;;;;;;;;;;;;16.15;62.93;101946.22;5050726;28;1652;-40
2021/12/23 12:25:33;;;;;;;;;;;;;;;16.17;61.82;101949.66;5051617;28;1732;-39
2021/12/23 12:28:12;;;;;;;;;;;;;;;16.17;62.47;101939.00;5052271;28;1856;-39
2021/12/23 12:30:42;;;;;;;;;;;;;;;16.16;61.93;101933.78;5053835;28;1620;-40
2021/12/23 12:33:13;;;;;;;;;;;;;;;16.15;62.09;101932.88;5052940;28;1875;-39
2021/12/23 12:35:41;;;;;;;;;;;;;;;16.16;62.57;101926.63;5056608;28;1079;-39
2021/12/23 12:38:19;;;;;;;;;;;;;;;16.13;61.44;101923.25;5057255;28;1409;-39
2021/12/23 12:41:01;;;;;;;;;;;;;;;16.10;61.20;101924.31;5051208;28;1973;-39
2021/12/23 12:43:48;;;;;;;;;;;;;;;16.04;60.19;101922.84;5050219;28;1807;-39
2021/12/23 12:46:16;;;;;;;;;;;;;;;16.03;59.00;101915.78;5046415;28;1572;-40
2021/12/23 12:49:05;;;;;;;;;;;;;;;16.10;59.21;101917.16;5045709;28;1816;-39
2021/12/23 12:51:34;;;;;;;;;;;;;;;16.73;58.02;101882.34;5059792;28;1884;-39
2021/12/23 12:54:05;;;;;;;;;;;;;;;17.38;57.26;101895.28;5064129;28;1779;-39
2021/12/23 12:56:32;;;;;;;;;;;;;;;17.89;56.83;101907.13;5064953;28;1687;-40
2021/12/23 12:59:00;;;;;;;;;;;;;;;18.57;55.12;101891.91;5066172;28;1685;-40
2021/12/23 13:01:31;;;;;;;;;;;;;;;18.93;54.97;101879.63;5064890;28;2071;-39
2021/12/23 13:03:59;;;;;;;;;;;;;;;19.24;53.39;101891.72;5066056;28;1128;-39
2021/12/23 13:06:28;;;;;;;;;;;;;;;19.45;54.25;101891.97;5058699;28;1896;-40
2021/12/23 13:09:03;;;;;;;;;;;;;;;19.59;53.10;101887.44;5063498;28;1765;-40
2021/12/23 13:11:29;;;;;;;;;;;;;;;19.78;53.21;101895.03;5064011;28;1828;-39
2021/12/23 13:14:01;;;;;;;;;;;;;;;19.76;53.61;101884.41;5053395;28;1557;-40
2021/12/23 13:16:29;;;;;;;;;;;;;;;19.79;52.94;101878.81;5062719;28;1790;-40
2021/12/23 13:19:12;;;;;;;;;;;;;;;19.95;52.64;101907.19;5065995;28;1023;-39
2021/12/23 13:21:40;;;;;;;;;;;;;;;19.82;53.34;101889.31;5059893;28;1973;-39
2021/12/23 13:24:07;;;;;;;;;;;;;;;19.96;53.82;101901.72;5064453;28;1816;-40
2021/12/23 13:26:33;;;;;;;;;;;;;;;19.98;52.67;101893.56;5066594;28;1674;-41
2021/12/23 13:29:00;;;;;;;;;;;;;;;20.17;52.55;101901.94;5060323;28;1590;-39
2021/12/23 13:31:29;;;;;;;;;;;;;;;20.12;52.42;101885.31;5065918;28;1761;-39
2021/12/23 13:33:57;;;;;;;;;;;;;;;20.06;52.82;101883.94;5065639;28;2056;-39
2021/12/23 13:36:25;;;;;;;;;;;;;;;20.09;52.66;101887.38;5057261;28;1758;-39
2021/12/23 13:38:52;;;;;;;;;;;;;;;20.13;53.17;101883.50;5065796;28;1557;-39
2021/12/23 13:41:25;;;;;;;;;;;;;;;20.17;53.66;101879.59;5065293;28;1906;-40
2021/12/23 13:43:52;;;;;;;;;;;;;;;20.26;52.62;101884.28;5064384;28;1813;-40
2021/12/23 13:46:19;;;;;;;;;;;;;;;20.21;52.98;101881.94;5064146;28;1060;-39
2021/12/23 13:48:54;;;;;;;;;;;;;;;20.17;52.45;101879.59;5066624;28;1791;-39
2021/12/23 13:51:21;;;;;;;;;;;;;;;20.29;52.98;101872.44;5056855;28;1931;-39
2021/12/23 13:53:48;;;;;;;;;;;;;;;20.17;52.67;101888.50;5063869;28;1750;-39
2021/12/23 13:56:15;;;;;;;;;;;;;;;20.40;52.64;101873.34;5063836;28;1469;-39
2021/12/23 13:58:42;;;;;;;;;;;;;;;20.29;52.83;101877.81;5066272;28;1065;-39
2021/12/23 14:01:10;;;;;;;;;;;;;;;20.26;53.45;101879.75;5063224;28;1973;-39
2021/12/23 14:03:36;;;;;;;;;;;;;;;20.17;52.80;101883.13;5062834;28;1783;-39
2021/12/23 14:06:04;;;;;;;;;;;;;;;20.43;53.33;101885.66;5072868;28;1650;-39